createdAt,value
2022-08-21T00:01:25.431Z,3.10
2022-08-21T00:06:31.879Z,2.97
2022-08-21T00:11:38.053Z,2.97
2022-08-21T00:16:44.151Z,3.12
2022-08-21T00:21:50.444Z,3.02
2022-08-21T00:26:56.581Z,3.03
2022-08-21T00:32:03.036Z,3.44
2022-08-21T00:37:09.481Z,3.52
2022-08-21T00:42:15.705Z,3.69
2022-08-21T00:47:21.878Z,3.79
2022-08-21T00:52:28.291Z,3.77
2022-08-21T00:57:34.527Z,3.47
2022-08-21T01:02:40.794Z,3.60
2022-08-21T01:07:46.925Z,3.80
2022-08-21T01:12:53.359Z,3.95
2022-08-21T01:17:59.472Z,3.74
2022-08-21T01:23:05.688Z,3.91
2022-08-21T01:28:11.795Z,3.81
2022-08-21T01:33:18.002Z,3.85
2022-08-21T01:38:24.181Z,4.06
2022-08-21T01:43:35.595Z,4.08
2022-08-21T01:48:35.565Z,3.52
2022-08-21T01:53:41.756Z,3.56
2022-08-21T01:58:47.913Z,3.53
2022-08-21T02:03:54.136Z,3.33
2022-08-21T02:09:00.304Z,3.51
2022-08-21T02:14:06.792Z,3.60
2022-08-21T02:19:12.908Z,3.25
2022-08-21T02:24:19.213Z,3.75
2022-08-21T02:29:25.641Z,3.28
2022-08-21T02:34:31.861Z,3.97
2022-08-21T02:39:38.052Z,3.00
2022-08-21T02:44:44.345Z,3.25
2022-08-21T02:49:50.618Z,3.37
2022-08-21T02:54:56.950Z,3.30
2022-08-21T03:00:03.065Z,2.97
2022-08-21T03:05:09.357Z,3.09
2022-08-21T03:10:15.460Z,3.17
2022-08-21T03:15:21.681Z,3.40
2022-08-21T03:20:27.784Z,3.73
2022-08-21T03:25:40.403Z,3.54
2022-08-21T03:30:40.037Z,3.46
2022-08-21T03:35:46.368Z,3.42
2022-08-21T03:40:52.481Z,3.72
2022-08-21T03:45:58.761Z,3.76
2022-08-21T03:51:04.861Z,3.90
2022-08-21T03:56:11.089Z,3.76
2022-08-21T04:01:17.333Z,4.03
2022-08-21T04:06:23.655Z,4.07
2022-08-21T04:11:30.118Z,4.35
2022-08-21T04:16:36.288Z,4.35
2022-08-21T04:21:42.461Z,4.31
2022-08-21T04:26:48.249Z,4.80
2022-08-21T04:31:54.430Z,4.91
2022-08-21T04:37:00.644Z,4.61
2022-08-21T04:42:06.793Z,4.73
2022-08-21T04:47:13.054Z,5.06
2022-08-21T04:52:19.160Z,5.25
2022-08-21T04:57:39.702Z,5.22
2022-08-21T05:02:31.113Z,5.83
2022-08-21T05:07:42.482Z,6.45
2022-08-21T05:12:42.541Z,6.15
2022-08-21T05:17:52.524Z,6.53
2022-08-21T05:22:54.447Z,6.44
2022-08-21T05:28:00.899Z,7.16
2022-08-21T05:33:06.962Z,6.81
2022-08-21T05:38:17.858Z,6.93
2022-08-21T05:43:18.844Z,6.76
2022-08-21T05:48:25.078Z,7.05
2022-08-21T05:53:31.168Z,7.48
2022-08-21T05:58:37.391Z,7.97
2022-08-21T06:03:43.491Z,7.75
2022-08-21T06:08:49.746Z,7.49
2022-08-21T06:13:55.791Z,7.36
2022-08-21T06:19:03.231Z,7.90
2022-08-21T06:24:08.100Z,6.89
2022-08-21T06:29:14.289Z,7.01
2022-08-21T06:34:20.448Z,5.86
2022-08-21T06:39:30.746Z,6.46
2022-08-21T06:44:32.445Z,5.69
2022-08-21T06:49:38.910Z,5.64
2022-08-21T06:54:45.081Z,5.38
2022-08-21T06:59:51.417Z,5.02
2022-08-21T07:04:57.549Z,5.13
2022-08-21T07:10:03.849Z,4.40
2022-08-21T07:15:10.059Z,4.53
2022-08-21T07:20:16.310Z,3.89
2022-08-21T07:25:22.468Z,3.77
2022-08-21T07:30:28.689Z,3.77
2022-08-21T07:35:34.845Z,4.16
2022-08-21T07:40:41.148Z,3.64
2022-08-21T07:45:47.303Z,4.11
2022-08-21T07:50:53.501Z,3.51
2022-08-21T07:55:59.693Z,3.47
2022-08-21T08:01:05.993Z,2.83
2022-08-21T08:06:12.132Z,3.12
2022-08-21T08:11:18.623Z,2.93
2022-08-21T08:16:24.717Z,3.65
2022-08-21T08:21:31.134Z,2.90
2022-08-21T08:26:36.878Z,2.91
2022-08-21T08:31:43.191Z,3.00
2022-08-21T08:36:49.304Z,2.97
2022-08-21T08:41:58.790Z,2.69
2022-08-21T08:47:00.993Z,2.67
2022-08-21T08:52:07.253Z,3.01
2022-08-21T08:57:13.421Z,3.44
2022-08-21T09:02:19.736Z,2.82
2022-08-21T09:07:25.868Z,2.96
2022-08-21T09:12:32.093Z,3.01
2022-08-21T09:17:38.206Z,2.78
2022-08-21T09:22:44.405Z,2.47
2022-08-21T09:27:50.526Z,2.32
2022-08-21T09:32:56.922Z,2.64
2022-08-21T09:38:02.935Z,2.40
2022-08-21T09:43:09.249Z,2.10
2022-08-21T09:48:15.440Z,2.06
2022-08-21T09:53:21.649Z,2.21
2022-08-21T09:58:27.747Z,2.22
2022-08-21T10:03:33.913Z,2.02
2022-08-21T10:08:40.044Z,1.95
2022-08-21T10:13:46.329Z,1.97
2022-08-21T10:18:52.400Z,1.93
2022-08-21T10:23:58.888Z,2.25
2022-08-21T10:30:03.501Z,2.20
2022-08-21T10:35:09.709Z,2.08
2022-08-21T10:40:16.007Z,2.15
2022-08-21T10:45:22.332Z,2.15
2022-08-21T10:50:28.497Z,1.95
2022-08-21T10:55:34.745Z,2.09
2022-08-21T11:00:40.973Z,2.09
2022-08-21T11:05:50.612Z,1.93
2022-08-21T11:10:57.903Z,2.04
2022-08-21T11:15:58.881Z,1.91
2022-08-21T11:21:04.981Z,1.87
2022-08-21T11:26:11.250Z,1.83
2022-08-21T11:31:17.393Z,2.20
2022-08-21T11:36:23.591Z,1.90
2022-08-21T11:41:29.793Z,2.00
2022-08-21T11:46:36.193Z,1.97
2022-08-21T11:51:42.311Z,1.82
2022-08-21T11:56:48.618Z,1.82
2022-08-21T12:01:54.838Z,1.94
2022-08-21T12:07:00.997Z,1.93
2022-08-21T12:12:07.142Z,1.62
2022-08-21T12:17:16.361Z,2.16
2022-08-21T12:22:19.074Z,1.79
2022-08-21T12:27:24.906Z,1.79
2022-08-21T12:32:31.089Z,1.66
2022-08-21T12:37:37.390Z,1.57
2022-08-21T12:42:43.569Z,1.59
2022-08-21T12:47:49.826Z,1.84
2022-08-21T12:52:55.922Z,1.90
2022-08-21T12:58:02.151Z,1.48
2022-08-21T13:03:08.334Z,1.69
2022-08-21T13:08:14.555Z,1.96
2022-08-21T13:13:25.559Z,1.69
2022-08-21T13:18:26.754Z,1.75
2022-08-21T13:23:32.866Z,1.62
2022-08-21T13:28:39.091Z,1.44
2022-08-21T13:33:45.177Z,1.37
2022-08-21T13:38:51.382Z,1.67
2022-08-21T13:43:57.887Z,1.47
2022-08-21T13:49:04.198Z,1.42
2022-08-21T13:54:10.282Z,1.56
2022-08-21T13:59:16.540Z,1.53
2022-08-21T14:04:22.786Z,1.41
2022-08-21T14:09:29.093Z,1.50
2022-08-21T14:14:35.194Z,1.36
2022-08-21T14:19:41.427Z,1.31
2022-08-21T14:24:47.064Z,1.34
2022-08-21T14:29:52.834Z,1.41
2022-08-21T14:34:59.312Z,1.25
2022-08-21T14:40:04.737Z,1.44
2022-08-21T14:45:10.726Z,1.35
2022-08-21T14:50:16.995Z,1.36
2022-08-21T14:55:23.115Z,1.36
2022-08-21T15:00:36.299Z,1.39
2022-08-21T15:05:35.125Z,1.33
2022-08-21T15:10:57.308Z,1.52
2022-08-21T15:15:47.452Z,1.56
2022-08-21T15:20:53.794Z,1.39
2022-08-21T15:25:59.917Z,1.39
2022-08-21T15:31:05.690Z,1.40
2022-08-21T15:36:12.063Z,1.47
2022-08-21T15:41:18.302Z,1.61
2022-08-21T15:46:24.417Z,1.73
2022-08-21T15:51:30.606Z,1.64
2022-08-21T15:56:36.822Z,1.62
2022-08-21T16:01:44.911Z,1.89
2022-08-21T16:06:54.140Z,1.86
2022-08-21T16:11:54.866Z,1.85
2022-08-21T16:17:00.957Z,1.68
2022-08-21T16:22:07.278Z,2.04
2022-08-21T16:27:13.502Z,2.00
2022-08-21T16:32:19.714Z,2.30
2022-08-21T16:37:25.819Z,1.97
2022-08-21T16:42:32.057Z,2.22
2022-08-21T16:47:38.194Z,2.18
2022-08-21T16:52:44.455Z,2.31
2022-08-21T16:57:50.612Z,2.04
2022-08-21T17:02:56.841Z,2.16
2022-08-21T17:08:02.933Z,2.18
2022-08-21T17:13:09.832Z,2.99
2022-08-21T17:18:15.936Z,2.69
2022-08-21T17:23:22.133Z,2.48
2022-08-21T17:28:28.261Z,2.48
2022-08-21T17:33:34.474Z,2.54
2022-08-21T17:38:40.626Z,2.46
2022-08-21T17:43:46.968Z,2.28
2022-08-21T17:50:00.788Z,2.43
2022-08-21T17:55:07.036Z,2.26
2022-08-21T18:00:13.148Z,2.36
2022-08-21T18:05:19.498Z,2.24
2022-08-21T18:10:26.481Z,2.34
2022-08-21T18:15:33.170Z,2.36
2022-08-21T18:20:39.410Z,2.65
2022-08-21T18:25:45.682Z,2.34
2022-08-21T18:30:51.894Z,2.51
2022-08-21T18:35:58.550Z,2.72
2022-08-21T18:41:10.115Z,2.89
2022-08-21T18:46:10.057Z,2.34
2022-08-21T18:51:16.267Z,3.04
2022-08-21T18:56:22.922Z,2.39
2022-08-21T19:01:28.655Z,2.72
2022-08-21T19:06:34.865Z,2.70
2022-08-21T19:11:43.234Z,2.60
2022-08-21T19:16:47.530Z,3.74
2022-08-21T19:21:53.599Z,3.16
2022-08-21T19:27:00.033Z,2.61
2022-08-21T19:32:06.194Z,2.53
2022-08-21T19:37:12.676Z,2.72
2022-08-21T19:42:18.821Z,2.71
2022-08-21T19:47:29.448Z,2.51
2022-08-21T19:52:30.738Z,2.71
2022-08-21T19:57:36.597Z,2.81
2022-08-21T20:02:48.120Z,2.73
2022-08-21T20:07:48.125Z,2.50
2022-08-21T20:12:54.234Z,2.64
2022-08-21T20:18:00.569Z,2.58
2022-08-21T20:23:10.670Z,2.59
2022-08-21T20:28:12.126Z,2.92
2022-08-21T20:33:18.274Z,2.57
2022-08-21T20:43:30.398Z,2.84
2022-08-21T20:48:49.092Z,2.77
2022-08-21T20:53:43.916Z,2.41
2022-08-21T20:58:48.829Z,3.00
2022-08-21T21:03:55.265Z,2.50
2022-08-21T21:09:01.589Z,2.94
2022-08-21T21:14:07.718Z,3.13
2022-08-21T21:19:13.422Z,2.53
2022-08-21T21:24:19.193Z,2.79
2022-08-21T21:29:25.509Z,2.54
2022-08-21T21:34:31.645Z,3.15
2022-08-21T21:39:37.881Z,2.77
2022-08-21T21:44:43.561Z,2.75
2022-08-21T21:54:55.383Z,2.71
2022-08-21T22:00:01.670Z,3.15
2022-08-21T22:05:07.401Z,3.37
2022-08-21T22:10:19.821Z,3.08
2022-08-21T22:15:26.347Z,2.88
2022-08-21T22:20:25.198Z,3.40
2022-08-21T22:25:30.965Z,2.84
2022-08-21T22:30:37.337Z,3.01
2022-08-21T22:35:43.074Z,2.92
2022-08-21T22:40:49.109Z,2.73
2022-08-21T22:45:55.134Z,3.15
2022-08-21T22:51:01.747Z,2.97
2022-08-21T22:56:08.205Z,3.16
2022-08-21T23:01:14.477Z,3.02
2022-08-21T23:06:20.241Z,3.18
2022-08-21T23:11:26.042Z,2.77
2022-08-21T23:16:31.864Z,3.01
2022-08-21T23:21:38.185Z,2.93
2022-08-21T23:26:46.841Z,2.86
2022-08-21T23:31:49.834Z,3.12
2022-08-21T23:36:55.593Z,2.71
2022-08-21T23:42:01.362Z,2.90
2022-08-21T23:47:07.574Z,2.62
2022-08-21T23:52:13.770Z,3.07
2022-08-21T23:57:31.294Z,2.78
